Time;durP1;ratioP1;P1;durP2;ratioP2;P2;SDS_P1;SDS_P2;PMS_P1;PMS_P2;Temp;Humidity;BMP_temperature;BMP_pressure;BME280_temperature;BME280_humidity;BME280_pressure;Samples;Min_cycle;Max_cycle;Signal;HPM_P1;HPM_P2
2021/07/05 00:02:16;;;;;;;0.88;0.77;;;15.20;88.90;;;;;;5018574;28;20057;-71
2021/07/05 00:04:43;;;;;;;2.47;0.82;;;15.20;88.80;;;;;;5019671;28;20144;-72
2021/07/05 00:07:09;;;;;;;1.58;0.80;;;15.20;88.80;;;;;;5020996;28;20044;-72
2021/07/05 00:09:36;;;;;;;0.80;0.70;;;15.20;88.90;;;;;;5019352;28;20438;-73
2021/07/05 00:12:02;;;;;;;1.75;0.70;;;15.20;89.00;;;;;;5024699;28;20044;-72
2021/07/05 00:14:28;;;;;;;1.00;0.90;;;15.20;89.00;;;;;;5024130;28;20037;-71
2021/07/05 00:16:54;;;;;;;1.33;0.75;;;15.20;89.30;;;;;;5024530;28;20036;-72
2021/07/05 00:19:20;;;;;;;1.15;1.00;;;15.10;89.60;;;;;;5022314;28;20108;-71
2021/07/05 00:21:46;;;;;;;0.60;0.60;;;15.10;89.50;;;;;;5023904;28;20083;-72
2021/07/05 00:24:11;;;;;;;0.98;0.80;;;15.10;89.20;;;;;;5025297;28;20681;-72
2021/07/05 00:26:37;;;;;;;1.40;0.90;;;15.10;89.70;;;;;;5024860;28;20040;-72
2021/07/05 00:29:03;;;;;;;0.82;0.82;;;15.10;89.20;;;;;;5024324;28;20026;-71
2021/07/05 00:31:29;;;;;;;0.93;0.80;;;15.10;89.10;;;;;;5025360;28;20029;-72
2021/07/05 00:33:55;;;;;;;0.80;0.80;;;15.10;89.00;;;;;;5022778;28;20025;-72
2021/07/05 00:36:21;;;;;;;3.40;1.17;;;15.10;89.20;;;;;;5024593;28;20025;-73
2021/07/05 00:38:47;;;;;;;1.55;1.45;;;15.00;89.10;;;;;;5026306;28;20516;-72
2021/07/05 00:41:13;;;;;;;1.05;1.02;;;15.00;89.20;;;;;;5025736;28;20032;-74
2021/07/05 00:43:39;;;;;;;1.58;1.10;;;15.00;89.30;;;;;;5026006;28;20025;-72
2021/07/05 00:46:04;;;;;;;1.85;1.00;;;15.00;89.30;;;;;;5024344;28;20041;-73
2021/07/05 00:48:30;;;;;;;0.75;0.75;;;15.00;89.30;;;;;;5026422;28;20127;-73
2021/07/05 00:50:56;;;;;;;0.90;0.80;;;14.90;89.80;;;;;;5025221;28;20048;-73
2021/07/05 00:53:22;;;;;;;1.13;0.90;;;14.90;89.30;;;;;;5024109;28;20053;-73
2021/07/05 00:55:49;;;;;;;2.13;1.00;;;14.90;90.00;;;;;;5028564;28;20057;-73
2021/07/05 00:58:15;;;;;;;1.27;1.00;;;15.00;89.40;;;;;;5027897;28;20033;-74
2021/07/05 01:00:41;;;;;;;3.63;1.13;;;14.90;89.20;;;;;;5025420;28;20097;-74
2021/07/05 01:03:07;;;;;;;0.85;0.85;;;14.90;89.30;;;;;;5024324;28;20393;-73
2021/07/05 01:05:33;;;;;;;2.58;1.27;;;14.90;89.80;;;;;;5025528;28;20052;-72
2021/07/05 01:08:00;;;;;;;3.13;0.80;;;14.90;89.70;;;;;;5021853;28;20161;-72
2021/07/05 01:10:27;;;;;;;1.00;0.80;;;14.90;89.80;;;;;;5025937;28;20193;-73
2021/07/05 01:12:54;;;;;;;2.25;1.08;;;14.90;89.50;;;;;;5024576;28;20030;-74
2021/07/05 01:15:26;;;;;;;2.55;1.02;;;14.90;89.50;;;;;;5022537;28;20983;-73
2021/07/05 01:17:53;;;;;;;0.90;0.90;;;14.90;89.50;;;;;;5021879;28;20029;-71
2021/07/05 01:20:22;;;;;;;3.05;0.88;;;14.90;89.50;;;;;;5024766;28;20034;-71
2021/07/05 01:22:48;;;;;;;1.45;1.30;;;14.90;89.60;;;;;;5033619;28;20033;-72
2021/07/05 01:25:17;;;;;;;0.95;0.90;;;14.90;90.00;;;;;;5021223;28;20056;-72
2021/07/05 01:27:44;;;;;;;1.65;1.10;;;14.90;89.50;;;;;;5023325;28;20633;-72
2021/07/05 01:30:12;;;;;;;1.60;0.95;;;14.90;89.40;;;;;;5017617;28;21461;-73
2021/07/05 01:32:38;;;;;;;3.20;1.15;;;14.90;89.50;;;;;;5029447;28;20092;-71
2021/07/05 01:35:05;;;;;;;1.48;0.98;;;15.00;89.60;;;;;;5024747;28;20053;-72
2021/07/05 01:37:31;;;;;;;2.60;0.90;;;15.00;89.30;;;;;;5025998;28;20034;-72
2021/07/05 01:39:58;;;;;;;0.75;0.60;;;15.00;89.40;;;;;;5021578;28;20048;-73
2021/07/05 01:42:24;;;;;;;1.92;0.98;;;15.00;89.30;;;;;;5030791;28;20029;-73
2021/07/05 01:44:50;;;;;;;0.95;0.88;;;15.00;89.30;;;;;;5021823;28;20037;-72
2021/07/05 01:47:15;;;;;;;1.00;1.00;;;15.00;89.10;;;;;;5024721;28;20678;-73
2021/07/05 01:49:44;;;;;;;2.05;1.10;;;14.90;88.90;;;;;;5023585;28;20057;-73
2021/07/05 01:52:11;;;;;;;0.90;0.90;;;14.90;89.20;;;;;;5023337;28;20120;-73
2021/07/05 01:54:38;;;;;;;3.63;0.90;;;14.90;89.10;;;;;;5024909;28;20028;-73
2021/07/05 01:57:04;;;;;;;1.27;0.90;;;14.90;89.20;;;;;;5019505;28;20109;-73
2021/07/05 01:59:30;;;;;;;0.80;0.80;;;14.80;89.30;;;;;;5022354;28;20022;-73
2021/07/05 02:01:56;;;;;;;1.15;0.98;;;14.80;89.20;;;;;;5023911;28;20439;-71
2021/07/05 02:04:25;;;;;;;0.80;0.80;;;14.80;90.20;;;;;;5019972;28;20029;-73
2021/07/05 02:06:51;;;;;;;1.90;1.00;;;14.80;89.50;;;;;;5021814;28;20031;-73
2021/07/05 02:09:17;;;;;;;1.45;1.08;;;14.80;89.20;;;;;;5022775;28;20037;-72
2021/07/05 02:11:43;;;;;;;1.02;0.98;;;14.80;89.10;;;;;;5022829;28;20052;-73
2021/07/05 02:14:09;;;;;;;2.22;1.00;;;14.80;89.30;;;;;;5019158;28;20056;-73
2021/07/05 02:16:35;;;;;;;1.17;1.08;;;14.70;89.20;;;;;;5022067;28;20131;-72
2021/07/05 02:19:03;;;;;;;1.23;0.80;;;14.70;89.60;;;;;;5029187;28;20479;-70
2021/07/05 02:21:29;;;;;;;2.67;1.20;;;14.70;89.40;;;;;;5038932;28;20028;-72
2021/07/05 02:23:54;;;;;;;1.48;1.08;;;14.70;89.50;;;;;;5023686;28;20037;-72
2021/07/05 02:26:20;;;;;;;2.63;1.30;;;14.70;89.40;;;;;;5032461;28;20033;-74
2021/07/05 02:28:46;;;;;;;1.00;1.00;;;14.70;89.60;;;;;;5035085;28;20024;-74
2021/07/05 02:31:12;;;;;;;3.88;1.13;;;14.60;90.00;;;;;;5020631;28;20692;-72
2021/07/05 02:33:38;;;;;;;1.80;1.00;;;14.60;89.40;;;;;;5036207;28;20521;-73
2021/07/05 02:36:05;;;;;;;3.75;1.38;;;14.60;89.30;;;;;;5035996;28;20021;-72
2021/07/05 02:38:34;;;;;;;2.92;1.00;;;14.60;89.60;;;;;;5022636;28;20025;-74
2021/07/05 02:41:00;;;;;;;;;;;14.60;89.60;;;;;;5023751;28;20047;-72
2021/07/05 02:43:26;;;;;;;0.95;0.90;;;14.50;90.00;;;;;;5020115;28;19963;-73
2021/07/05 02:45:54;;;;;;;1.85;0.80;;;14.40;90.10;;;;;;5023451;28;20030;-71
2021/07/05 02:48:23;;;;;;;2.42;1.20;;;14.30;90.10;;;;;;5019841;28;20037;-73
2021/07/05 02:50:55;;;;;;;1.73;1.13;;;14.30;90.00;;;;;;5030009;28;20033;-72
2021/07/05 02:53:22;;;;;;;1.63;1.17;;;14.30;90.00;;;;;;5021300;28;20021;-72
2021/07/05 02:55:48;;;;;;;1.35;0.88;;;14.40;89.70;;;;;;5021534;28;20711;-73
2021/07/05 02:58:14;;;;;;;2.13;1.75;;;14.30;89.10;;;;;;5025627;28;20113;-72
2021/07/05 03:00:44;;;;;;;1.20;1.10;;;14.30;88.10;;;;;;5037083;28;20770;-72
2021/07/05 03:03:11;;;;;;;1.23;1.10;;;14.20;88.00;;;;;;5031783;28;20025;-71
2021/07/05 03:05:37;;;;;;;1.38;1.15;;;14.00;87.80;;;;;;5026593;28;20040;-73
2021/07/05 03:08:04;;;;;;;2.33;1.08;;;14.00;87.90;;;;;;5029931;28;20495;-71
2021/07/05 03:10:34;;;;;;;1.00;1.00;;;13.90;88.10;;;;;;5030717;28;20458;-72
2021/07/05 03:13:02;;;;;;;2.65;1.00;;;13.80;88.20;;;;;;5029979;28;20025;-71
2021/07/05 03:15:28;;;;;;;0.93;0.93;;;13.80;89.10;;;;;;5031875;28;20256;-72
2021/07/05 03:17:54;;;;;;;2.65;1.25;;;13.80;89.40;;;;;;5025015;28;20025;-72
2021/07/05 03:20:23;;;;;;;2.22;1.20;;;13.70;90.00;;;;;;5030523;28;20032;-71
2021/07/05 03:22:50;;;;;;;2.75;1.20;;;13.60;90.30;;;;;;5020562;28;20028;-72
2021/07/05 03:25:18;;;;;;;2.83;1.30;;;13.60;90.60;;;;;;5018948;28;21831;-73
2021/07/05 03:27:46;;;;;;;1.33;1.23;;;13.70;90.80;;;;;;5026953;28;20037;-72
2021/07/05 03:30:13;;;;;;;1.10;1.00;;;13.70;90.80;;;;;;5030183;28;20091;-72
2021/07/05 03:32:39;;;;;;;2.33;1.27;;;13.70;90.60;;;;;;5019200;28;20088;-71
2021/07/05 03:35:08;;;;;;;1.92;1.70;;;13.80;90.60;;;;;;5018776;28;20041;-71
2021/07/05 03:37:34;;;;;;;;;;;13.80;90.50;;;;;;5043501;28;20033;-71
2021/07/05 03:40:00;;;;;;;1.48;1.30;;;13.80;90.60;;;;;;5027428;28;19931;-70
2021/07/05 03:42:26;;;;;;;2.33;2.13;;;13.80;90.80;;;;;;5036171;28;20025;-71
2021/07/05 03:44:52;;;;;;;1.83;1.30;;;13.80;90.90;;;;;;5035345;28;20391;-73
2021/07/05 03:47:18;;;;;;;3.10;1.42;;;13.80;90.80;;;;;;5028092;28;20033;-71
2021/07/05 03:49:44;;;;;;;1.45;1.35;;;13.70;90.90;;;;;;5036623;28;20116;-72
2021/07/05 03:52:10;;;;;;;4.03;1.90;;;13.80;91.00;;;;;;5016551;28;20487;-71
2021/07/05 03:54:36;;;;;;;2.75;1.52;;;13.80;91.10;;;;;;5026358;28;20040;-72
2021/07/05 03:57:02;;;;;;;3.03;1.30;;;13.80;91.10;;;;;;5024194;28;20018;-72
2021/07/05 03:59:29;;;;;;;1.92;1.40;;;13.90;91.20;;;;;;5021495;28;20029;-70
2021/07/05 04:01:55;;;;;;;2.35;1.20;;;14.00;90.90;;;;;;5016262;28;20041;-71
2021/07/05 04:04:21;;;;;;;1.90;1.13;;;14.10;90.70;;;;;;5021998;28;20530;-73
2021/07/05 04:06:52;;;;;;;1.40;1.30;;;14.10;90.60;;;;;;5021791;28;20029;-72
2021/07/05 04:09:18;;;;;;;1.67;1.40;;;14.20;90.60;;;;;;5021887;28;20454;-70
2021/07/05 04:11:44;;;;;;;3.65;1.60;;;14.30;90.70;;;;;;5021357;28;20036;-72
2021/07/05 04:14:10;;;;;;;2.55;1.58;;;14.30;90.90;;;;;;5020401;28;20112;-72
2021/07/05 04:16:35;;;;;;;5.03;1.65;;;14.40;90.70;;;;;;5019883;28;20025;-71
2021/07/05 04:19:01;;;;;;;2.58;1.10;;;14.40;90.70;;;;;;5019465;28;20161;-72
2021/07/05 04:21:27;;;;;;;1.23;1.13;;;14.50;90.70;;;;;;5022769;28;20551;-72
2021/07/05 04:23:54;;;;;;;2.30;1.38;;;14.50;90.80;;;;;;5018023;28;20029;-72
2021/07/05 04:26:20;;;;;;;1.20;1.10;;;14.60;91.00;;;;;;5022355;28;20033;-71
2021/07/05 04:28:46;;;;;;;1.60;1.38;;;14.60;90.80;;;;;;5025936;28;20029;-73
2021/07/05 04:31:14;;;;;;;1.52;1.10;;;14.70;90.90;;;;;;5033955;28;20052;-74
2021/07/05 04:33:48;;;;;;;1.80;1.10;;;14.70;90.90;;;;;;5034842;28;20037;-71
2021/07/05 04:36:14;;;;;;;1.70;1.60;;;14.80;90.90;;;;;;5044371;28;20034;-70
2021/07/05 04:38:41;;;;;;;1.83;1.15;;;14.80;90.80;;;;;;5040152;28;20044;-72
2021/07/05 04:41:12;;;;;;;2.67;1.48;;;14.90;90.80;;;;;;5031251;28;20032;-73
2021/07/05 04:43:38;;;;;;;1.48;1.38;;;15.00;90.70;;;;;;5036156;28;20025;-74
2021/07/05 04:46:05;;;;;;;1.77;1.48;;;15.00;90.70;;;;;;5014518;28;20022;-72
2021/07/05 04:48:32;;;;;;;4.95;1.75;;;15.10;90.50;;;;;;5017247;28;20025;-72
2021/07/05 04:50:58;;;;;;;1.85;1.20;;;15.10;90.60;;;;;;5016945;28;20048;-73
2021/07/05 04:53:26;;;;;;;1.30;1.20;;;15.20;90.80;;;;;;5018311;28;20030;-72
2021/07/05 04:55:53;;;;;;;6.20;1.20;;;15.20;90.80;;;;;;5017155;28;20135;-74
2021/07/05 04:58:21;;;;;;;1.40;1.30;;;15.30;90.70;;;;;;5018287;28;20046;-73
2021/07/05 05:00:47;;;;;;;2.35;1.45;;;15.30;91.00;;;;;;5021830;28;20542;-72
2021/07/05 05:03:13;;;;;;;1.98;1.27;;;15.30;91.30;;;;;;5020784;28;20029;-73
2021/07/05 05:05:41;;;;;;;1.88;1.40;;;15.30;91.20;;;;;;5024702;28;20084;-74
2021/07/05 05:08:11;;;;;;;3.40;2.00;;;15.40;91.30;;;;;;5021650;28;20038;-72
2021/07/05 05:10:39;;;;;;;2.00;1.00;;;15.50;91.40;;;;;;5023651;28;20057;-73
2021/07/05 05:13:05;;;;;;;1.92;1.50;;;15.50;91.20;;;;;;5021554;28;20045;-72
2021/07/05 05:15:32;;;;;;;1.40;1.30;;;15.60;91.10;;;;;;5026410;28;20033;-73
2021/07/05 05:17:57;;;;;;;2.70;1.50;;;15.60;91.30;;;;;;5024200;28;20049;-73
2021/07/05 05:20:26;;;;;;;1.52;1.40;;;15.70;90.90;;;;;;5025780;28;20662;-73
2021/07/05 05:22:53;;;;;;;1.40;1.30;;;15.80;90.70;;;;;;5025282;28;20054;-73
2021/07/05 05:25:20;;;;;;;1.73;1.20;;;15.80;90.90;;;;;;5025232;28;20029;-72
2021/07/05 05:27:47;;;;;;;1.48;1.38;;;15.80;90.70;;;;;;5029777;28;20029;-74
2021/07/05 05:30:16;;;;;;;1.50;1.25;;;15.90;90.70;;;;;;5025870;28;20040;-73
2021/07/05 05:32:43;;;;;;;1.45;1.35;;;15.90;90.30;;;;;;5023441;28;20538;-73
2021/07/05 05:35:09;;;;;;;1.57;1.20;;;16.00;90.40;;;;;;5028875;28;20124;-71
2021/07/05 05:37:35;;;;;;;2.05;1.48;;;16.10;90.30;;;;;;5024104;28;20539;-72
2021/07/05 05:40:02;;;;;;;1.35;1.23;;;16.10;89.80;;;;;;5022137;28;20659;-71
2021/07/05 05:42:27;;;;;;;1.10;1.10;;;16.20;89.60;;;;;;5019171;28;20058;-71
2021/07/05 05:44:53;;;;;;;1.80;1.00;;;16.30;89.30;;;;;;5021083;28;20088;-72
2021/07/05 05:47:19;;;;;;;1.23;1.10;;;16.40;89.40;;;;;;5018541;28;20026;-72
2021/07/05 05:49:44;;;;;;;1.40;1.23;;;16.40;88.90;;;;;;5023206;28;20047;-72
2021/07/05 05:52:10;;;;;;;1.13;1.02;;;16.60;89.20;;;;;;5033693;28;20464;-73
2021/07/05 05:54:36;;;;;;;1.35;1.00;;;16.70;89.10;;;;;;5023150;28;21492;-73
2021/07/05 05:57:04;;;;;;;0.88;0.88;;;16.70;88.80;;;;;;5026754;28;20029;-72
2021/07/05 05:59:31;;;;;;;1.00;1.00;;;16.70;87.40;;;;;;5027185;28;20041;-73
2021/07/05 06:01:56;;;;;;;1.20;0.70;;;16.70;86.30;;;;;;5021728;28;20037;-72
2021/07/05 06:04:23;;;;;;;1.20;1.10;;;16.70;86.90;;;;;;5023250;28;20028;-73
2021/07/05 06:06:49;;;;;;;0.90;0.90;;;16.80;85.90;;;;;;5023162;28;20036;-73
2021/07/05 06:09:15;;;;;;;1.45;1.00;;;16.70;86.10;;;;;;5020197;28;20148;-73
2021/07/05 06:11:41;;;;;;;1.33;1.23;;;16.70;86.20;;;;;;5042728;28;20080;-74
2021/07/05 06:14:09;;;;;;;2.38;0.88;;;16.80;86.30;;;;;;5022626;28;20116;-73
2021/07/05 06:16:36;;;;;;;0.90;0.90;;;16.90;85.80;;;;;;5031342;28;20033;-75
2021/07/05 06:19:06;;;;;;;1.15;1.13;;;16.90;86.30;;;;;;5025790;28;20552;-73
2021/07/05 06:21:33;;;;;;;1.20;1.10;;;17.00;85.50;;;;;;5031567;28;20105;-72
2021/07/05 06:23:59;;;;;;;1.45;1.00;;;17.10;85.60;;;;;;5021274;28;20027;-73
2021/07/05 06:26:25;;;;;;;1.25;1.20;;;17.20;86.40;;;;;;5024210;28;20500;-74
2021/07/05 06:28:51;;;;;;;0.95;0.88;;;17.20;85.70;;;;;;5027928;28;20029;-73
2021/07/05 06:31:18;;;;;;;2.08;1.10;;;17.30;84.90;;;;;;5030448;28;20033;-74
2021/07/05 06:33:45;;;;;;;0.90;0.90;;;17.40;84.90;;;;;;5033131;28;20037;-74
2021/07/05 06:36:12;;;;;;;0.85;0.85;;;17.40;85.40;;;;;;5031967;28;20040;-73
2021/07/05 06:38:39;;;;;;;2.10;1.23;;;17.50;84.10;;;;;;5030641;28;20360;-74
2021/07/05 06:41:05;;;;;;;1.75;0.95;;;17.60;84.10;;;;;;5031572;28;20032;-74
2021/07/05 06:43:30;;;;;;;1.33;1.23;;;17.70;83.60;;;;;;5028270;28;20025;-73
2021/07/05 06:45:57;;;;;;;2.28;1.20;;;17.70;83.80;;;;;;5034418;28;20105;-73
2021/07/05 06:48:23;;;;;;;0.93;0.88;;;17.80;82.50;;;;;;5027051;28;20060;-73
2021/07/05 06:50:49;;;;;;;1.23;1.17;;;17.90;82.50;;;;;;5021988;28;20052;-74
2021/07/05 06:53:15;;;;;;;1.33;1.13;;;17.90;83.30;;;;;;5026587;28;20030;-74
2021/07/05 06:55:41;;;;;;;0.82;0.80;;;17.90;83.80;;;;;;5028078;28;20025;-74
2021/07/05 06:58:07;;;;;;;2.45;1.02;;;18.00;83.60;;;;;;5033439;28;20393;-74
2021/07/05 07:00:33;;;;;;;1.10;1.00;;;18.10;84.30;;;;;;5025411;28;20033;-74
2021/07/05 07:03:02;;;;;;;0.82;0.80;;;18.10;82.70;;;;;;5023864;28;20104;-74
2021/07/05 07:05:29;;;;;;;0.98;0.95;;;18.20;82.20;;;;;;5027993;28;20029;-73
2021/07/05 07:07:57;;;;;;;3.37;1.00;;;18.30;81.60;;;;;;5027010;28;20044;-73
2021/07/05 07:10:25;;;;;;;1.08;0.77;;;18.30;82.90;;;;;;5042246;28;20311;-73
2021/07/05 07:12:54;;;;;;;1.58;1.27;;;18.30;80.40;;;;;;5033206;28;20091;-73
2021/07/05 07:15:25;;;;;;;0.82;0.82;;;18.30;78.80;;;;;;5028112;28;20537;-74
2021/07/05 07:20:20;;;;;;;1.08;1.08;;;18.30;82.00;;;;;;5033987;28;20025;-73
2021/07/05 07:22:45;;;;;;;2.78;1.10;;;18.30;82.10;;;;;;5027454;28;20033;-74
2021/07/05 07:25:14;;;;;;;1.45;1.02;;;18.30;81.50;;;;;;5020722;28;20060;-73
2021/07/05 07:27:40;;;;;;;;;;;18.30;81.40;;;;;;5024344;28;20045;-74
2021/07/05 07:30:08;;;;;;;1.10;1.10;;;18.30;81.50;;;;;;5026824;28;19917;-74
2021/07/05 07:32:34;;;;;;;;;;;18.30;81.80;;;;;;5031304;28;20033;-75
2021/07/05 07:34:59;;;;;;;0.75;0.75;;;18.30;81.80;;;;;;5023610;28;19948;-74
2021/07/05 07:37:26;;;;;;;1.08;1.00;;;18.30;81.80;;;;;;5025605;28;20021;-74
2021/07/05 07:40:26;;;;;;;1.20;1.10;;;18.30;82.40;;;;;;5033567;28;20406;-74
2021/07/05 07:42:44;;;;;;;0.90;0.90;;;18.30;82.00;;;;;;5028008;28;20064;-75
2021/07/05 07:45:12;;;;;;;0.85;0.82;;;18.30;81.50;;;;;;5026985;28;20025;-74
2021/07/05 07:47:39;;;;;;;1.60;1.10;;;18.30;81.40;;;;;;5021811;28;20104;-74
2021/07/05 07:50:07;;;;;;;2.67;1.15;;;18.30;81.40;;;;;;5032955;28;20045;-74
2021/07/05 07:52:32;;;;;;;;;;;18.30;81.80;;;;;;5022750;28;20029;-74
2021/07/05 07:55:00;;;;;;;1.23;0.90;;;18.30;82.10;;;;;;5026788;28;19944;-74
2021/07/05 07:57:26;;;;;;;0.93;0.93;;;18.30;82.10;;;;;;5026357;28;20022;-74
2021/07/05 07:59:52;;;;;;;0.73;0.73;;;18.40;82.10;;;;;;5027199;28;20040;-74
2021/07/05 08:02:18;;;;;;;1.20;1.10;;;18.40;81.70;;;;;;5027610;28;20149;-74
2021/07/05 08:04:44;;;;;;;1.02;0.70;;;18.40;81.90;;;;;;5028344;28;20044;-74
2021/07/05 08:07:11;;;;;;;1.55;1.02;;;18.50;82.50;;;;;;5026013;28;20022;-74
2021/07/05 08:09:38;;;;;;;3.05;1.13;;;18.60;83.10;;;;;;5024557;28;20084;-74
2021/07/05 08:12:06;;;;;;;1.42;1.00;;;18.60;80.10;;;;;;5026156;28;20022;-74
2021/07/05 08:14:32;;;;;;;1.05;1.05;;;18.60;80.60;;;;;;5032153;28;20869;-75
2021/07/05 08:16:58;;;;;;;4.38;1.20;;;18.70;81.60;;;;;;5022409;28;20224;-74
2021/07/05 08:19:24;;;;;;;1.35;1.25;;;18.70;81.50;;;;;;5025245;28;20533;-74
2021/07/05 08:21:50;;;;;;;1.48;0.80;;;18.80;81.50;;;;;;5025932;28;20022;-74
2021/07/05 08:24:15;;;;;;;1.27;1.17;;;18.80;80.60;;;;;;5027478;28;20022;-75
2021/07/05 08:26:41;;;;;;;2.60;1.27;;;18.80;80.90;;;;;;5026630;28;20381;-74
2021/07/05 08:29:08;;;;;;;0.98;0.98;;;18.90;80.60;;;;;;5024454;28;20113;-74
2021/07/05 08:31:35;;;;;;;1.33;1.13;;;18.90;80.20;;;;;;5022445;28;20574;-77
2021/07/05 08:34:01;;;;;;;0.98;0.93;;;18.90;80.60;;;;;;5028738;28;20508;-75
2021/07/05 08:36:27;;;;;;;0.90;0.90;;;18.90;80.10;;;;;;5029487;28;20452;-74
2021/07/05 08:38:53;;;;;;;1.23;1.00;;;19.00;80.30;;;;;;5028979;28;20061;-74
2021/07/05 08:41:20;;;;;;;1.15;1.05;;;19.00;79.10;;;;;;5027060;28;20103;-74
2021/07/05 08:43:47;;;;;;;0.95;0.90;;;19.00;78.90;;;;;;5027637;28;20028;-74
2021/07/05 08:46:20;;;;;;;1.23;1.05;;;19.00;79.30;;;;;;5029886;28;20033;-74
2021/07/05 08:48:47;;;;;;;1.38;0.93;;;19.00;80.20;;;;;;5030043;28;20064;-74
2021/07/05 08:51:19;;;;;;;1.23;1.10;;;19.00;78.60;;;;;;5024173;28;20521;-73
2021/07/05 08:53:47;;;;;;;1.50;1.00;;;19.00;77.40;;;;;;5027222;28;20587;-75
2021/07/05 08:56:13;;;;;;;1.20;1.08;;;19.00;78.70;;;;;;5021098;28;20703;-74
2021/07/05 08:58:40;;;;;;;2.45;1.13;;;19.00;79.40;;;;;;5028377;28;20030;-74
2021/07/05 09:01:07;;;;;;;1.75;1.02;;;19.10;77.80;;;;;;5025197;28;20033;-74
2021/07/05 09:03:34;;;;;;;1.20;1.10;;;19.10;78.40;;;;;;5031297;28;20029;-74
2021/07/05 09:06:20;;;;;;;3.03;1.40;;;19.10;77.90;;;;;;5029504;28;20449;-73
2021/07/05 09:09:05;;;;;;;1.73;1.13;;;19.00;78.90;;;;;;5034556;28;20674;-74
2021/07/05 09:11:46;;;;;;;1.52;1.10;;;19.10;79.10;;;;;;5047172;28;20037;-75
2021/07/05 09:14:20;;;;;;;2.47;1.05;;;19.10;79.30;;;;;;5036134;28;20025;-74
2021/07/05 09:16:49;;;;;;;1.20;1.10;;;19.20;79.00;;;;;;5048168;28;20029;-74
2021/07/05 09:19:20;;;;;;;1.40;1.10;;;19.20;80.70;;;;;;5029771;28;20059;-74
2021/07/05 09:22:07;;;;;;;0.98;0.90;;;19.20;77.60;;;;;;5055793;28;20024;-74
2021/07/05 09:24:36;;;;;;;0.93;0.93;;;19.20;77.70;;;;;;5039067;28;20103;-73
2021/07/05 09:27:07;;;;;;;1.20;1.10;;;19.20;77.90;;;;;;5039707;28;20742;-74
2021/07/05 09:29:34;;;;;;;1.27;1.17;;;19.20;78.90;;;;;;5034487;28;20613;-74
2021/07/05 09:32:05;;;;;;;0.90;0.90;;;19.20;78.60;;;;;;5037201;28;20029;-74
2021/07/05 09:34:35;;;;;;;2.00;1.00;;;19.20;78.80;;;;;;5032251;28;20036;-73
2021/07/05 09:37:21;;;;;;;0.82;0.82;;;19.20;78.00;;;;;;5028468;28;20032;-73
2021/07/05 09:40:07;;;;;;;1.65;1.00;;;19.20;78.30;;;;;;5044091;28;20025;-75
2021/07/05 09:42:45;;;;;;;1.00;1.00;;;19.20;77.90;;;;;;5028772;28;20053;-73
2021/07/05 09:45:16;;;;;;;1.98;0.90;;;19.20;77.30;;;;;;5033334;28;20035;-73
2021/07/05 09:47:45;;;;;;;0.90;0.70;;;19.30;80.70;;;;;;5035334;28;20051;-73
2021/07/05 09:50:21;;;;;;;0.90;0.90;;;19.30;80.80;;;;;;5034048;28;20021;-74
2021/07/05 09:52:47;;;;;;;1.05;0.93;;;19.40;78.00;;;;;;5022065;28;20044;-74
2021/07/05 09:55:17;;;;;;;0.88;0.88;;;19.30;77.30;;;;;;5033217;28;20032;-74
2021/07/05 09:57:54;;;;;;;1.23;0.90;;;19.30;77.60;;;;;;5026071;28;20032;-73
2021/07/05 10:00:25;;;;;;;3.22;1.38;;;19.40;77.10;;;;;;5029233;28;20037;-74
2021/07/05 10:03:00;;;;;;;1.23;1.08;;;19.40;77.40;;;;;;5030710;28;20033;-74
2021/07/05 10:05:34;;;;;;;1.90;1.02;;;19.40;77.50;;;;;;5031160;28;20492;-74
2021/07/05 10:08:01;;;;;;;1.17;0.93;;;19.40;76.10;;;;;;5034750;28;20033;-74
2021/07/05 10:10:28;;;;;;;1.87;0.93;;;19.50;76.60;;;;;;5037342;28;20060;-74
2021/07/05 10:12:57;;;;;;;1.25;1.15;;;19.60;77.00;;;;;;5033570;28;20128;-74
2021/07/05 10:15:24;;;;;;;0.95;0.90;;;19.60;77.10;;;;;;5033930;28;20067;-74
2021/07/05 10:17:51;;;;;;;0.70;0.70;;;19.70;77.30;;;;;;5023814;28;20017;-74
2021/07/05 10:20:22;;;;;;;0.70;0.70;;;19.70;76.60;;;;;;5018697;28;20022;-74
2021/07/05 10:22:52;;;;;;;1.30;0.77;;;19.70;74.40;;;;;;5023872;28;20021;-74
2021/07/05 10:25:19;;;;;;;1.48;0.80;;;19.70;74.60;;;;;;5023940;28;20036;-73
2021/07/05 10:27:45;;;;;;;1.27;0.90;;;19.70;74.70;;;;;;5032415;28;20112;-74
2021/07/05 10:30:13;;;;;;;0.90;0.90;;;19.80;76.30;;;;;;5032538;28;20068;-74
2021/07/05 10:32:39;;;;;;;;;;;19.80;76.10;;;;;;5030879;28;20105;-74
2021/07/05 10:35:07;;;;;;;0.68;0.68;;;19.80;74.50;;;;;;5024799;28;19928;-74
2021/07/05 10:37:39;;;;;;;0.90;0.77;;;19.80;74.40;;;;;;5022959;28;20044;-73
2021/07/05 10:40:09;;;;;;;0.93;0.90;;;19.80;75.90;;;;;;5035586;28;20022;-74
2021/07/05 10:42:35;;;;;;;0.85;0.80;;;19.80;76.50;;;;;;5037445;28;20028;-74
2021/07/05 10:45:07;;;;;;;1.20;0.95;;;19.70;77.00;;;;;;5031220;28;20030;-74
2021/07/05 10:47:42;;;;;;;1.27;0.65;;;19.60;75.60;;;;;;5032517;28;20043;-74
2021/07/05 10:50:29;;;;;;;1.42;0.80;;;19.50;74.20;;;;;;5024511;28;20025;-74
2021/07/05 10:52:55;;;;;;;0.80;0.80;;;19.50;75.50;;;;;;5035277;28;20397;-74
2021/07/05 10:55:51;;;;;;;0.70;0.70;;;19.40;75.60;;;;;;5037677;28;20030;-74
2021/07/05 10:58:28;;;;;;;0.75;0.75;;;19.40;76.90;;;;;;5014526;28;20400;-74
2021/07/05 11:00:56;;;;;;;0.80;0.80;;;19.50;77.30;;;;;;5019444;28;20041;-75
2021/07/05 11:03:39;;;;;;;1.10;1.00;;;19.50;78.00;;;;;;5031169;28;20116;-73
2021/07/05 11:06:25;;;;;;;1.50;0.68;;;19.50;78.00;;;;;;5023736;28;20038;-75
2021/07/05 11:08:52;;;;;;;1.95;0.90;;;19.60;78.20;;;;;;5029096;28;20492;-74
2021/07/05 11:11:45;;;;;;;0.73;0.73;;;19.60;78.60;;;;;;5026689;28;20091;-75
2021/07/05 11:14:22;;;;;;;1.20;1.00;;;19.60;80.50;;;;;;5026740;28;20041;-74
2021/07/05 11:17:03;;;;;;;0.80;0.80;;;19.70;81.00;;;;;;5021642;28;20058;-74
2021/07/05 11:19:36;;;;;;;0.90;0.90;;;19.70;79.70;;;;;;5028939;28;20491;-74
2021/07/05 11:22:11;;;;;;;1.20;1.10;;;19.80;79.50;;;;;;5030884;28;20271;-75
2021/07/05 11:24:40;;;;;;;0.90;0.90;;;19.80;80.10;;;;;;5031855;28;20492;-74
2021/07/05 11:27:28;;;;;;;1.25;1.15;;;19.90;79.30;;;;;;5036253;28;20021;-74
2021/07/05 11:29:55;;;;;;;1.00;0.95;;;19.90;78.70;;;;;;5019702;28;20053;-75
2021/07/05 11:32:38;;;;;;;2.60;1.10;;;19.90;78.40;;;;;;5024085;28;20147;-75
2021/07/05 11:35:24;;;;;;;0.90;0.90;;;19.90;78.70;;;;;;5025876;28;20057;-74
2021/07/05 11:37:55;;;;;;;0.98;0.98;;;19.90;79.40;;;;;;5035851;28;20696;-75
2021/07/05 11:41:05;;;;;;;2.40;1.00;;;20.00;79.20;;;;;;5040171;28;20066;-75
2021/07/05 11:43:42;;;;;;;1.10;1.00;;;20.00;78.00;;;;;;5030427;28;20392;-74
2021/07/05 11:46:09;;;;;;;2.00;1.00;;;20.10;76.30;;;;;;5029580;28;20033;-73
2021/07/05 11:48:41;;;;;;;1.77;1.33;;;20.10;76.70;;;;;;5028158;28;20025;-74
2021/07/05 11:51:21;;;;;;;2.15;1.00;;;20.20;76.80;;;;;;5032703;28;20653;-74
2021/07/05 11:53:55;;;;;;;1.10;1.00;;;20.30;77.60;;;;;;5042277;28;20484;-74
2021/07/05 11:56:31;;;;;;;1.08;1.00;;;20.30;77.20;;;;;;5037862;28;20492;-75
2021/07/05 11:58:59;;;;;;;0.88;0.88;;;20.40;75.80;;;;;;5050165;28;20021;-74
2021/07/05 12:01:30;;;;;;;0.52;0.52;;;20.30;73.50;;;;;;5024837;28;20296;-76
2021/07/05 12:03:57;;;;;;;1.00;0.90;;;20.40;73.80;;;;;;5030716;28;20056;-74
2021/07/05 12:06:24;;;;;;;0.90;0.80;;;20.30;72.70;;;;;;5032470;28;20034;-75
2021/07/05 12:08:53;;;;;;;0.80;0.80;;;20.20;70.10;;;;;;5029031;28;20033;-74
2021/07/05 12:11:41;;;;;;;1.15;0.80;;;20.00;70.80;;;;;;5036318;28;20500;-75
2021/07/05 12:14:07;;;;;;;0.60;0.60;;;19.80;71.80;;;;;;5031030;28;20141;-76
2021/07/05 12:16:35;;;;;;;0.77;0.77;;;19.60;72.80;;;;;;5045756;28;20056;-74
2021/07/05 12:19:03;;;;;;;1.90;0.63;;;19.40;73.10;;;;;;5033824;28;20026;-74
2021/07/05 12:21:39;;;;;;;0.80;0.70;;;19.40;73.30;;;;;;5036805;28;20029;-74
2021/07/05 12:24:22;;;;;;;0.80;0.80;;;19.30;75.00;;;;;;5035965;28;20728;-74
2021/07/05 12:26:53;;;;;;;0.70;0.65;;;19.30;75.00;;;;;;5031086;28;20033;-74
2021/07/05 12:29:30;;;;;;;2.15;0.80;;;19.30;74.50;;;;;;5034190;28;20075;-74
2021/07/05 12:32:08;;;;;;;1.02;1.02;;;19.30;75.80;;;;;;5033167;28;20044;-74
2021/07/05 12:34:51;;;;;;;2.03;0.75;;;19.30;75.20;;;;;;5033949;28;20166;-74
2021/07/05 12:37:48;;;;;;;;;;;;;;;;;;;;;
2021/07/05 12:40:24;;;;;;;1.35;1.00;;;19.30;73.60;;;;;;5035231;28;20021;-74
2021/07/05 12:42:53;;;;;;;0.80;0.80;;;19.30;73.10;;;;;;5034533;28;20036;-74
2021/07/05 12:45:22;;;;;;;3.13;0.90;;;19.30;73.10;;;;;;5031816;28;20037;-74
2021/07/05 12:48:14;;;;;;;3.03;0.70;;;19.50;73.90;;;;;;5035979;28;20499;-75
2021/07/05 12:50:50;;;;;;;0.80;0.80;;;19.50;70.10;;;;;;5035801;28;20033;-74
2021/07/05 12:53:23;;;;;;;0.52;0.52;;;19.50;71.60;;;;;;5039068;28;20453;-75
2021/07/05 12:55:52;;;;;;;1.50;0.80;;;19.60;70.70;;;;;;5025782;28;20029;-75
2021/07/05 12:58:44;;;;;;;2.80;0.70;;;19.70;71.50;;;;;;5035570;28;20032;-74
2021/07/05 13:01:36;;;;;;;0.98;0.60;;;19.90;69.40;;;;;;5027329;28;20057;-74
2021/07/05 13:04:06;;;;;;;0.60;0.60;;;19.90;69.00;;;;;;5037049;28;20037;-74